Bei Facebook empfehlenBei Twitter postenGoogle plusPinterest

Das Wetter im Erzgebirge am 21.10.2015

Wetter und Klima am 21.10.2015 Holzhau im Erzgebirge (630m ü.NN)
Letzte gemessene Temperatur und Uhrzeit der Messung23:45:00 Uhr4.10 °C
Temperatur (Maximum / Höchstwert) und Uhrzeit der Messung15:15:00 Uhr6.80 °C
Temperatur (Minimum / Tiefstwert) und Uhrzeit der Messung23:45:004.10 °C
Errechneter Absolutwert der Temperaturschwankungen zwischen Tmin und Tmax des Tages2.70 K
Errechnete Tagesmitteltemperatur5.17188 °C
Gesamt - Niederschlag des Tages (in flüssiger Form)1.56 Liter / m²
Luftdruck (Maximum / Höchstwert) und Zeitpunkt der Messung12:00:00 Uhr1016.00 hPa
Luftdruck (Minimum / Tiefstwert) und Zeitpunkt der Messung23:45:00 Uhr1014.80 hPa
Errechneter Absolutwert der Luftdruckschwankungen des Tages1.20 hPa
Höchste gemessene Windgeschwindigkeit und Uhrzeit der Messung03:45:00 Uhr10.08 km/h
Errechnete Windhäufigkeit in Relation zu den Messwerten des Tages6.25000 %
Niedrigste Windkühle (Windchill) und Zeitpunkt der Messung03:45:00 Uhr3.10 °C
Taupunkt (Maximum / Höchstwert) und Uhrzeit der Messung15:15:00 Uhr6.40 °C
Taupunkt (Minimum / Tiefstwert) und Uhrzeit der Messung23:45:003.50 °C
Anzahl der automatisch eingelesenen Messwerte 96

Detaillierte Wetter- und Klima- Messwerte für den 21.10.2015 in Holzhau im Erzgebirge (630m ü.NN)
ZeitTemperaturLuftdruckRel. LuftfeuchteWindWindrichtungWindchillTaupunktNiederschlag l/m²
23:45:004.10 °C1014.80 hPa96.00 %3.50 °C1.56
23:30:004.10 °C1014.80 hPa96.00 %3.50 °C1.56
23:15:004.10 °C1014.80 hPa96.00 %3.50 °C1.56
23:00:004.20 °C1014.90 hPa96.00 %3.60 °C1.56
22:45:004.20 °C1015.20 hPa96.00 %3.60 °C1.56
22:30:004.20 °C1015.20 hPa96.00 %3.60 °C1.56
22:15:004.30 °C1015.20 hPa96.00 %3.70 °C1.56
22:00:004.30 °C1015.10 hPa96.00 %3.70 °C1.56
21:45:004.30 °C1015.10 hPa96.00 %3.70 °C1.56
21:30:004.40 °C1015.10 hPa96.00 %3.80 °C1.56
21:15:004.50 °C1015.10 hPa96.00 %3.90 °C1.56
21:00:004.60 °C1015.10 hPa96.00 %4.00 °C1.56
20:45:004.60 °C1015.20 hPa96.00 %4.00 °C1.56
20:30:004.80 °C1015.10 hPa96.00 %4.20 °C1.56
20:15:004.80 °C1015.10 hPa96.00 %4.20 °C1.56
20:00:004.90 °C1015.30 hPa96.00 %4.30 °C1.56
19:45:004.90 °C1015.30 hPa96.00 %4.30 °C1.56
19:30:004.90 °C1015.30 hPa96.00 %4.30 °C1.56
19:15:004.90 °C1015.10 hPa96.00 %4.30 °C1.56
19:00:004.90 °C1015.10 hPa96.00 %4.30 °C1.56
18:45:004.90 °C1015.10 hPa96.00 %4.30 °C1.56
18:30:004.90 °C1015.10 hPa96.00 %4.30 °C1.56
18:15:005.00 °C1015.20 hPa96.00 %4.40 °C1.56
18:00:005.00 °C1015.20 hPa96.00 %4.40 °C1.56
17:45:005.00 °C1015.20 hPa96.00 %4.40 °C1.56
17:30:005.00 °C1015.40 hPa96.00 %4.40 °C1.56
17:15:005.10 °C1015.20 hPa96.00 %4.50 °C1.56
17:00:005.30 °C1015.20 hPa96.00 %4.70 °C1.56
16:45:005.40 °C1015.30 hPa96.00 %4.80 °C1.56
16:30:005.60 °C1015.10 hPa96.00 %5.00 °C1.56
16:15:005.80 °C1015.20 hPa96.00 %5.20 °C1.56
16:00:005.90 °C1015.30 hPa96.00 %1.80 km/hNW5.90 °C5.30 °C1.56
15:45:006.10 °C1015.20 hPa96.00 %5.50 °C1.56
15:30:006.40 °C1015.20 hPa96.00 %5.80 °C1.56
15:15:006.80 °C1015.30 hPa97.00 %6.40 °C1.56
15:00:006.50 °C1015.30 hPa97.00 %6.10 °C1.56
14:45:006.10 °C1015.70 hPa97.00 %5.70 °C1.56
14:30:006.40 °C1015.60 hPa97.00 %6.00 °C1.56
14:15:006.50 °C1015.70 hPa97.00 %6.10 °C1.56
14:00:006.50 °C1015.70 hPa97.00 %6.10 °C1.56
13:45:006.60 °C1015.80 hPa97.00 %3.24 km/hNW6.60 °C6.20 °C1.56
13:30:006.60 °C1015.90 hPa97.00 %3.96 km/hWNW6.60 °C6.20 °C1.56
13:15:006.50 °C1015.90 hPa97.00 %6.10 °C1.56
13:00:006.40 °C1015.90 hPa97.00 %6.00 °C1.56
12:45:006.50 °C1015.70 hPa97.00 %8.28 km/hNNW4.80 °C6.10 °C1.56
12:30:006.40 °C1015.90 hPa97.00 %6.00 °C1.56
12:15:006.00 °C1015.90 hPa97.00 %5.60 °C1.56
12:00:005.50 °C1016.00 hPa97.00 %5.10 °C1.56
11:45:005.80 °C1016.00 hPa97.00 %5.40 °C1.56
11:30:005.60 °C1015.90 hPa97.00 %5.20 °C1.56
11:15:005.30 °C1015.80 hPa97.00 %4.90 °C1.56
11:00:004.90 °C1015.80 hPa97.00 %4.50 °C1.56
10:45:004.90 °C1015.70 hPa97.00 %4.50 °C1.04
10:30:004.80 °C1015.70 hPa97.00 %4.40 °C1.04
10:15:004.80 °C1015.80 hPa97.00 %4.40 °C1.04
10:00:004.80 °C1015.80 hPa97.00 %4.40 °C1.04
09:45:004.70 °C1016.00 hPa97.00 %4.30 °C1.04
09:30:004.70 °C1015.90 hPa97.00 %4.30 °C1.04
09:15:004.60 °C1015.70 hPa97.00 %4.20 °C1.04
09:00:004.60 °C1015.70 hPa97.00 %4.20 °C1.04
08:45:004.60 °C1015.50 hPa97.00 %4.20 °C1.04
08:30:004.50 °C1015.30 hPa97.00 %4.10 °C1.04
08:15:004.50 °C1015.40 hPa97.00 %4.10 °C1.04
08:00:004.50 °C1015.20 hPa97.00 %4.10 °C1.04
07:45:004.50 °C1015.40 hPa97.00 %4.10 °C1.04
07:30:004.60 °C1015.50 hPa97.00 %4.20 °C1.04
07:15:004.60 °C1015.40 hPa97.00 %4.20 °C1.04
07:00:004.60 °C1015.60 hPa97.00 %4.20 °C1.04
06:45:004.70 °C1015.80 hPa97.00 %4.30 °C1.04
06:30:004.80 °C1015.80 hPa97.00 %4.40 °C1.04
06:15:004.90 °C1015.80 hPa97.00 %4.50 °C1.04
06:00:004.90 °C1015.80 hPa97.00 %4.50 °C1.04
05:45:005.00 °C1015.70 hPa97.00 %4.60 °C1.04
05:30:005.10 °C1015.60 hPa97.00 %4.70 °C1.04
05:15:005.10 °C1015.80 hPa97.00 %4.70 °C1.04
05:00:005.10 °C1015.70 hPa97.00 %4.70 °C1.04
04:45:005.10 °C1015.70 hPa97.00 %4.70 °C1.04
04:30:005.20 °C1015.70 hPa97.00 %4.80 °C1.04
04:15:005.30 °C1015.60 hPa97.00 %4.90 °C1.04
04:00:005.30 °C1015.80 hPa96.00 %4.70 °C1.04
03:45:005.40 °C1015.60 hPa96.00 %10.08 km/hWSW3.10 °C4.80 °C1.04
03:30:005.30 °C1015.80 hPa96.00 %4.70 °C1.04
03:15:005.30 °C1015.70 hPa96.00 %4.70 °C1.04
03:00:005.30 °C1015.80 hPa96.00 %4.70 °C1.04
02:45:005.20 °C1015.70 hPa96.00 %4.60 °C0.52
02:30:005.10 °C1015.90 hPa96.00 %4.50 °C0.52
02:15:005.10 °C1015.90 hPa96.00 %4.50 °C0.52
02:00:005.10 °C1015.80 hPa96.00 %4.50 °C0.52
01:45:005.20 °C1015.90 hPa96.00 %4.60 °C0.52
01:30:005.20 °C1015.80 hPa96.00 %4.60 °C0.52
01:15:005.20 °C1015.90 hPa96.00 %4.60 °C0.52
01:00:005.30 °C1015.90 hPa96.00 %4.70 °C0.52
00:45:005.40 °C1016.00 hPa96.00 %4.80 °C0.52
00:30:005.60 °C1016.00 hPa97.00 %5.20 °C 
00:15:005.80 °C1016.00 hPa97.00 %6.12 km/hW4.60 °C5.40 °C 
00:00:005.90 °C1015.90 hPa97.00 %5.50 °C 

Permanenter Link zu dieser Seite: Wetter im Erzgebirge am 21.10.2015
Performance-Info: Die Erstellung der Seite / Statistik(en) / Tabelle(n) erforderte 5 Datenbankserver-Abfrage(n) und dauerte 123 Millisekunden. (Dieser Messwert ist von der Gesamt-Auslastung des Servers abhängig.)
Erzgebirge - Wetter | Erzgebirge - Wetter (Mobilgeräte) | Komplette Klimadatenbank